Time;durP1;ratioP1;P1;durP2;ratioP2;P2;SDS_P1;SDS_P2;PMS_P1;PMS_P2;Temp;Humidity;BMP_temperature;BMP_pressure;BME280_temperature;BME280_humidity;BME280_pressure;Samples;Min_cycle;Max_cycle;Signal;HPM_P1;HPM_P2
2023/01/25 00:01:31;;;;;;;12.97;4.50;;;1.70;99.90;;;;;;4837555;29;20042;-87
2023/01/25 00:04:48;;;;;;;13.53;4.97;;;1.70;99.90;;;;;;4823867;29;20109;-87
2023/01/25 00:08:29;;;;;;;;;;;;;;;;;;;;;
2023/01/25 00:11:44;;;;;;;;;;;;;;;;;;;;;
2023/01/25 00:14:30;;;;;;;15.80;5.10;;;1.80;99.90;;;;;;4839810;29;20503;-87
2023/01/25 00:17:32;;;;;;;15.03;4.57;;;1.80;99.90;;;;;;4842074;29;20036;-89
2023/01/25 00:20:30;;;;;;;15.77;5.55;;;1.70;99.90;;;;;;4842769;29;20068;-89
2023/01/25 00:23:53;;;;;;;17.57;4.53;;;1.70;99.90;;;;;;4842229;29;20030;-88
2023/01/25 00:30:06;;;;;;;;;;;;;;;;;;;;;
2023/01/25 00:42:01;;;;;;;;;;;;;;;;;;;;;
2023/01/25 00:44:30;;;;;;;13.97;4.97;;;1.80;99.90;;;;;;4839970;29;20046;-90
2023/01/25 00:47:47;;;;;;;;;;;;;;;;;;;;;
2023/01/25 00:51:04;;;;;;;;;;;;;;;;;;;;;
2023/01/25 00:57:38;;;;;;;16.57;4.30;;;1.60;99.90;;;;;;4825709;29;20083;-90
2023/01/25 01:00:48;;;;;;;14.85;4.70;;;1.70;99.90;;;;;;4836895;29;20034;-89
2023/01/25 01:07:47;;;;;;;13.93;4.53;;;1.70;99.90;;;;;;4838389;29;20038;-89
2023/01/25 01:11:12;;;;;;;20.50;5.00;;;1.70;99.90;;;;;;4824508;29;20058;-90
2023/01/25 01:41:56;;;;;;;18.90;5.13;;;1.70;99.90;;;;;;4835727;29;20056;-89
2023/01/25 01:44:43;;;;;;;15.60;4.63;;;1.70;99.90;;;;;;4819227;29;20042;-89
2023/01/25 01:47:17;;;;;;;15.73;4.83;;;1.70;99.90;;;;;;4851905;29;20058;-89
2023/01/25 01:50:30;;;;;;;15.17;4.83;;;1.80;99.90;;;;;;4835059;29;20057;-89
2023/01/25 01:53:31;;;;;;;14.07;4.80;;;1.60;99.90;;;;;;4841255;29;20527;-89
2023/01/25 01:56:10;;;;;;;14.87;4.50;;;1.70;99.90;;;;;;4832063;29;20084;-89
2023/01/25 01:58:36;;;;;;;13.90;4.87;;;1.70;99.90;;;;;;4832839;29;20482;-89
2023/01/25 02:01:37;;;;;;;15.33;4.13;;;1.80;99.90;;;;;;4837050;29;20038;-89
2023/01/25 02:04:05;;;;;;;20.03;5.93;;;1.60;99.90;;;;;;4830348;29;20488;-91
2023/01/25 02:07:10;;;;;;;15.80;4.73;;;1.60;99.90;;;;;;4841765;29;20117;-89
2023/01/25 02:09:49;;;;;;;14.97;4.27;;;1.60;99.90;;;;;;4832656;29;20034;-89
2023/01/25 02:12:34;;;;;;;13.37;4.67;;;1.70;99.90;;;;;;4834059;29;20030;-89
2023/01/25 02:15:04;;;;;;;12.53;4.30;;;1.70;99.90;;;;;;4837382;29;20480;-89
2023/01/25 02:17:51;;;;;;;12.97;4.53;;;1.80;99.90;;;;;;4840935;29;20137;-89
2023/01/25 02:20:23;;;;;;;16.93;4.90;;;2.40;99.90;;;;;;4840856;29;20078;-89
2023/01/25 02:23:33;;;;;;;11.90;3.90;;;1.80;99.90;;;;;;4837789;29;20044;-89
2023/01/25 02:26:26;;;;;;;15.20;4.93;;;1.20;99.90;;;;;;4802359;29;20121;-89
2023/01/25 02:32:17;;;;;;;13.57;4.23;;;1.70;99.90;;;;;;4871214;23;20161;-90
2023/01/25 02:34:51;;;;;;;16.80;5.43;;;1.80;99.90;;;;;;4831915;29;20036;-90
2023/01/25 02:44:20;;;;;;;;;;;;;;;;;;;;;
2023/01/25 02:46:49;;;;;;;12.63;3.73;;;1.60;99.90;;;;;;4821517;29;20046;-91
2023/01/25 03:02:27;;;;;;;19.63;4.73;;;1.70;99.90;;;;;;4822773;29;20062;-88
2023/01/25 03:05:25;;;;;;;14.87;4.37;;;1.70;99.90;;;;;;4832444;29;20565;-89
2023/01/25 03:07:54;;;;;;;12.37;4.10;;;2.20;99.90;;;;;;4818372;29;20042;-90
2023/01/25 03:13:40;;;;;;;15.77;4.37;;;1.60;99.90;;;;;;4827871;29;20030;-90
2023/01/25 03:16:18;;;;;;;12.37;4.63;;;1.90;99.90;;;;;;4830496;29;20043;-91
2023/01/25 03:19:11;;;;;;;12.77;4.57;;;2.40;99.90;;;;;;4817922;29;20114;-89
2023/01/25 03:21:57;;;;;;;11.23;4.87;;;1.60;99.90;;;;;;4818511;29;20058;-90
2023/01/25 03:24:50;;;;;;;10.37;3.93;;;1.70;99.90;;;;;;4823625;29;20030;-90
2023/01/25 03:30:28;;;;;;;13.07;3.80;;;2.50;99.90;;;;;;4813898;29;20045;-90
2023/01/25 03:33:12;;;;;;;13.87;4.23;;;2.30;99.90;;;;;;4816636;29;20499;-90
2023/01/25 03:36:15;;;;;;;;;;;;;;;;;;;;;
2023/01/25 06:40:55;;;;;;;8.63;2.60;;;1.80;99.90;;;;;;722352;23;21749;-94
2023/01/25 06:47:28;;;;;;;10.20;3.20;;;1.70;99.90;;;;;;4806540;29;20047;-89
2023/01/25 06:50:39;;;;;;;8.98;2.85;;;2.80;99.90;;;;;;4830382;29;20042;-89
2023/01/25 06:53:43;;;;;;;;;;;;;;;;;;;;;
2023/01/25 07:06:20;;;;;;;7.57;2.60;;;2.00;99.90;;;;;;4822983;29;20041;-89
2023/01/25 07:11:51;;;;;;;9.80;3.23;;;2.70;99.90;;;;;;4846568;24;20068;-89
2023/01/25 07:14:28;;;;;;;9.87;3.07;;;3.00;99.90;;;;;;4837731;29;20054;-89
2023/01/25 07:17:17;;;;;;;10.27;3.63;;;2.10;99.90;;;;;;4842424;29;20034;-89
2023/01/25 07:20:20;;;;;;;9.70;3.47;;;0.20;99.90;;;;;;4836566;29;20450;-89
2023/01/25 07:23:10;;;;;;;9.37;3.63;;;2.80;99.90;;;;;;4852003;29;20465;-89
2023/01/25 07:32:57;;;;;;;14.00;3.87;;;1.50;99.90;;;;;;4833897;29;20531;-89
2023/01/25 07:39:12;;;;;;;10.90;3.70;;;1.20;99.90;;;;;;4803862;29;20034;-89
2023/01/25 07:41:39;;;;;;;10.03;3.40;;;1.80;99.90;;;;;;4792249;29;20023;-90
2023/01/25 07:44:26;;;;;;;7.60;2.50;;;1.40;99.90;;;;;;4815699;29;20047;-89
2023/01/25 07:47:09;;;;;;;7.83;3.10;;;3.00;99.90;;;;;;4833347;29;20154;-89
2023/01/25 07:53:10;;;;;;;11.10;3.07;;;1.90;99.90;;;;;;4838820;29;20030;-88
2023/01/25 07:56:11;;;;;;;;;;;;;;;;;;;;;
2023/01/25 08:06:36;;;;;;;;;;;;;;;;;;;;;
2023/01/25 09:07:38;;;;;;;9.77;3.50;;;2.30;99.90;;;;;;4843830;29;20326;-88
2023/01/25 09:20:16;;;;;;;9.70;3.08;;;2.20;99.90;;;;;;4798586;29;20070;-88
2023/01/25 09:23:12;;;;;;;10.37;3.17;;;2.20;99.90;;;;;;4786361;29;20035;-88
2023/01/25 09:26:04;;;;;;;10.67;3.40;;;3.10;99.90;;;;;;4770896;29;20534;-89
2023/01/25 09:41:37;;;;;;;9.73;3.13;;;2.20;99.90;;;;;;4762806;30;20116;-88
2023/01/25 09:48:14;;;;;;;;;;;;;;;;;;;;;
2023/01/25 11:50:26;;;;;;;9.50;3.13;;;2.00;99.90;;;;;;4821903;29;20046;-89
2023/01/25 11:53:37;;;;;;;8.77;3.37;;;2.00;99.90;;;;;;4835308;29;20381;-89
2023/01/25 12:03:36;;;;;;;;;;;;;;;;;;;;;
2023/01/25 12:06:55;;;;;;;9.20;3.47;;;3.40;99.90;;;;;;4810014;29;20631;-88
2023/01/25 12:10:14;;;;;;;;;;;;;;;;;;;;;
2023/01/25 12:16:38;;;;;;;10.37;3.10;;;3.20;99.90;;;;;;4836971;29;20102;-89
2023/01/25 13:09:22;;;;;;;;;;;;;;;;;;;;;
2023/01/25 13:18:36;;;;;;;8.23;2.90;;;1.80;99.90;;;;;;4845724;24;20119;-87
2023/01/25 13:21:40;;;;;;;10.23;3.77;;;3.00;99.90;;;;;;4831917;29;20031;-88
2023/01/25 13:24:35;;;;;;;10.00;3.60;;;1.80;99.90;;;;;;4831537;29;20019;-87
2023/01/25 13:35:07;;;;;;;;;;;;;;;;;;;;;
2023/01/25 13:38:26;;;;;;;10.20;3.63;;;3.00;99.90;;;;;;4820070;29;20049;-87
2023/01/25 13:42:05;;;;;;;8.50;2.83;;;1.50;99.90;;;;;;4809787;29;20055;-88
2023/01/25 13:52:06;;;;;;;8.87;2.97;;;1.70;99.90;;;;;;4813428;29;20042;-88
2023/01/25 13:54:55;;;;;;;10.07;3.63;;;1.60;99.90;;;;;;4830472;29;20042;-88
2023/01/25 14:05:42;;;;;;;15.53;4.60;;;1.70;99.90;;;;;;2181419;27;20077;-87
2023/01/25 14:19:33;;;;;;;;;;;;;;;;;;;;;
2023/01/25 14:22:34;;;;;;;14.27;4.60;;;1.40;99.90;;;;;;4828831;29;20037;-87
2023/01/25 14:26:01;;;;;;;13.73;4.00;;;1.70;99.90;;;;;;4837163;29;20026;-86
2023/01/25 14:29:01;;;;;;;10.43;3.63;;;1.10;99.90;;;;;;4798630;29;20063;-87
2023/01/25 14:32:38;;;;;;;;;;;;;;;;;;;;;
2023/01/25 14:35:55;;;;;;;9.87;4.33;;;2.30;99.90;;;;;;4807199;29;20938;-86
2023/01/25 14:41:55;;;;;;;9.67;3.57;;;2.00;99.90;;;;;;4822223;29;20043;-86
2023/01/25 14:44:22;;;;;;;14.20;4.07;;;2.90;99.90;;;;;;4828670;29;20105;-86
2023/01/25 14:46:50;;;;;;;16.70;4.50;;;1.30;99.90;;;;;;4827709;29;20026;-86
2023/01/25 14:49:31;;;;;;;15.50;4.73;;;2.60;99.90;;;;;;4830883;29;20022;-87
2023/01/25 14:52:09;;;;;;;15.90;4.77;;;3.20;99.90;;;;;;4837643;29;20119;-86
2023/01/25 14:54:58;;;;;;;13.97;4.67;;;1.80;99.90;;;;;;4826088;29;20487;-85
2023/01/25 14:57:45;;;;;;;11.00;4.07;;;2.80;99.90;;;;;;4820374;29;20033;-86
2023/01/25 15:00:53;;;;;;;11.17;4.17;;;1.80;99.90;;;;;;4824820;29;20061;-86
2023/01/25 15:03:28;;;;;;;10.23;3.70;;;1.40;99.90;;;;;;4809545;29;20034;-85
2023/01/25 15:06:06;;;;;;;15.37;4.43;;;2.30;99.90;;;;;;4799951;29;20055;-86
2023/01/25 15:08:40;;;;;;;12.50;4.33;;;2.20;99.90;;;;;;4857101;29;20102;-85
2023/01/25 15:11:55;;;;;;;10.63;3.93;;;1.70;99.90;;;;;;4852731;29;20072;-86
2023/01/25 15:14:21;;;;;;;16.20;5.07;;;2.20;99.90;;;;;;4833923;29;20043;-86
2023/01/25 15:16:54;;;;;;;16.53;4.27;;;2.10;99.90;;;;;;4835855;29;20030;-86
2023/01/25 15:19:36;;;;;;;11.90;4.30;;;3.30;99.90;;;;;;4833281;29;20837;-87
2023/01/25 15:22:10;;;;;;;16.10;5.57;;;2.10;99.90;;;;;;4825384;29;20121;-87
2023/01/25 15:24:36;;;;;;;15.93;4.53;;;2.70;99.90;;;;;;4836090;29;20045;-86
2023/01/25 15:27:08;;;;;;;13.47;4.13;;;4.10;99.90;;;;;;4824325;29;20042;-86
2023/01/25 15:29:33;;;;;;;12.93;4.72;;;2.50;99.90;;;;;;4828827;29;20026;-86
2023/01/25 15:32:02;;;;;;;14.60;5.43;;;2.20;99.90;;;;;;4827147;29;20041;-87
2023/01/25 15:34:47;;;;;;;11.40;3.87;;;1.90;99.90;;;;;;4843469;29;20048;-87
2023/01/25 15:37:17;;;;;;;19.43;5.37;;;1.60;99.90;;;;;;4826942;29;20038;-86
2023/01/25 15:39:43;;;;;;;15.80;4.40;;;1.80;99.90;;;;;;4830329;29;20040;-86
2023/01/25 15:42:09;;;;;;;16.03;4.57;;;1.50;99.90;;;;;;4822748;29;20046;-86
2023/01/25 15:44:40;;;;;;;11.97;3.70;;;3.20;99.90;;;;;;4834394;29;20436;-85
2023/01/25 15:47:11;;;;;;;15.47;5.53;;;2.90;99.90;;;;;;4828770;29;20047;-86
2023/01/25 15:49:43;;;;;;;14.88;4.28;;;1.50;99.90;;;;;;4827352;29;20056;-87
2023/01/25 15:52:18;;;;;;;10.20;3.60;;;1.50;99.90;;;;;;4822576;29;20042;-87
2023/01/25 15:54:43;;;;;;;11.50;3.37;;;2.40;99.90;;;;;;4834403;29;20030;-87
2023/01/25 15:57:28;;;;;;;9.03;4.03;;;3.40;99.90;;;;;;4832213;29;20500;-86
2023/01/25 15:59:58;;;;;;;16.60;4.47;;;2.20;99.90;;;;;;4822753;29;20044;-87
2023/01/25 16:02:33;;;;;;;12.40;4.40;;;2.20;99.90;;;;;;4826822;29;20038;-86
2023/01/25 16:05:11;;;;;;;12.63;3.80;;;2.20;99.90;;;;;;4830549;29;20541;-87
2023/01/25 16:08:37;;;;;;;;;;;;;;;;;;;;;
2023/01/25 16:10:52;;;;;;;10.67;3.80;;;0.10;99.90;;;;;;4825778;29;20393;-85
2023/01/25 16:13:18;;;;;;;11.03;3.80;;;2.10;99.90;;;;;;4832581;29;20034;-85
2023/01/25 16:16:04;;;;;;;;;;;;;;;;;;;;;
2023/01/25 16:18:38;;;;;;;14.57;4.77;;;1.30;99.90;;;;;;4831822;29;20436;-86
2023/01/25 16:24:25;;;;;;;13.40;5.13;;;2.70;99.90;;;;;;4834365;29;20046;-87
2023/01/25 16:34:20;;;;;;;11.57;2.73;;;1.50;99.90;;;;;;4819597;29;20045;-86
2023/01/25 16:37:09;;;;;;;9.43;3.13;;;2.50;99.90;;;;;;4837057;29;20042;-86
2023/01/25 16:39:43;;;;;;;13.13;3.23;;;0.10;99.90;;;;;;4838288;29;20045;-86
2023/01/25 16:42:20;;;;;;;11.97;3.70;;;3.10;99.90;;;;;;4830919;29;20049;-87
2023/01/25 16:45:10;;;;;;;11.23;3.43;;;1.40;99.90;;;;;;4836057;29;20066;-86
2023/01/25 16:50:57;;;;;;;10.33;3.63;;;0.80;99.90;;;;;;4827219;29;20026;-87
2023/01/25 16:53:33;;;;;;;9.47;3.47;;;1.50;99.90;;;;;;4815292;29;20041;-87
2023/01/25 16:56:21;;;;;;;12.57;3.93;;;0.80;99.90;;;;;;4825389;29;20420;-87
2023/01/25 16:59:18;;;;;;;13.47;4.07;;;1.90;99.90;;;;;;4833061;29;20070;-86
2023/01/25 17:02:33;;;;;;;9.43;3.10;;;1.20;99.90;;;;;;4835256;29;20050;-86
2023/01/25 17:08:15;;;;;;;13.43;3.70;;;1.90;99.90;;;;;;4833879;29;20046;-87
2023/01/25 17:11:17;;;;;;;13.10;3.30;;;0.90;99.90;;;;;;4848437;29;20034;-87
2023/01/25 17:14:26;;;;;;;;;;;;;;;;;;;;;
2023/01/25 17:17:11;;;;;;;13.57;3.47;;;1.70;99.90;;;;;;4829815;29;20398;-86
2023/01/25 17:20:10;;;;;;;7.37;2.70;;;1.50;99.90;;;;;;4844384;29;20040;-87
2023/01/25 17:22:41;;;;;;;9.07;3.33;;;2.10;99.90;;;;;;4834072;29;20458;-87
2023/01/25 17:25:36;;;;;;;9.70;3.37;;;2.40;99.90;;;;;;4840425;29;20037;-86
2023/01/25 17:28:42;;;;;;;10.57;3.70;;;1.70;99.90;;;;;;4834750;29;20049;-87
2023/01/25 17:31:31;;;;;;;11.57;2.77;;;1.40;99.90;;;;;;4835350;29;20042;-86
2023/01/25 17:34:08;;;;;;;7.03;2.67;;;1.40;99.90;;;;;;4833756;29;20064;-87
2023/01/25 17:36:48;;;;;;;9.30;3.20;;;2.80;99.90;;;;;;4835985;29;20095;-87
2023/01/25 17:39:47;;;;;;;12.43;3.10;;;2.40;99.90;;;;;;4839551;29;20036;-87
2023/01/25 17:42:28;;;;;;;11.00;3.27;;;1.40;99.90;;;;;;4834690;29;20506;-87
2023/01/25 17:45:19;;;;;;;7.68;2.20;;;1.60;99.90;;;;;;4842400;29;20089;-87
2023/01/25 17:48:04;;;;;;;;;;;;;;;;;;;;;
2023/01/25 17:51:23;;;;;;;11.97;3.37;;;1.30;99.90;;;;;;4843978;29;20034;-87
2023/01/25 17:54:21;;;;;;;7.10;2.20;;;1.30;99.90;;;;;;4829452;29;20042;-86
2023/01/25 17:57:22;;;;;;;9.20;2.90;;;2.60;99.90;;;;;;4840602;29;20030;-88
2023/01/25 18:00:20;;;;;;;9.67;2.60;;;2.80;99.90;;;;;;4845492;29;20495;-87
2023/01/25 18:03:03;;;;;;;8.93;2.50;;;2.30;99.90;;;;;;4828830;29;20049;-86
2023/01/25 18:06:07;;;;;;;10.27;3.40;;;1.80;99.90;;;;;;4839211;29;20045;-87
2023/01/25 18:09:04;;;;;;;8.30;2.93;;;1.30;99.90;;;;;;4856182;29;20026;-86
2023/01/25 18:11:48;;;;;;;9.73;2.03;;;2.10;99.90;;;;;;4837051;29;20045;-87
2023/01/25 18:14:46;;;;;;;9.03;2.93;;;1.40;99.90;;;;;;4833327;29;20037;-87
2023/01/25 18:18:06;;;;;;;8.13;2.60;;;1.80;99.90;;;;;;4837013;29;20033;-88
2023/01/25 18:20:44;;;;;;;8.27;2.77;;;1.80;99.90;;;;;;4840888;29;20567;-87
2023/01/25 18:23:34;;;;;;;9.20;2.77;;;1.40;99.90;;;;;;4835945;29;21326;-87
2023/01/25 18:26:07;;;;;;;8.07;2.90;;;1.10;99.90;;;;;;4843192;29;20048;-88
2023/01/25 18:28:35;;;;;;;8.43;3.17;;;1.30;99.90;;;;;;4833233;29;20038;-86
2023/01/25 18:31:16;;;;;;;11.80;5.60;;;1.30;99.90;;;;;;4839539;29;20030;-86
2023/01/25 18:34:02;;;;;;;10.43;3.37;;;1.60;99.90;;;;;;4839559;29;20046;-87
2023/01/25 18:36:41;;;;;;;9.93;3.03;;;1.70;99.90;;;;;;4841326;29;20107;-87
2023/01/25 18:40:11;;;;;;;8.70;3.17;;;2.20;99.90;;;;;;4838557;29;20026;-87
2023/01/25 18:43:01;;;;;;;11.23;3.30;;;2.50;99.90;;;;;;4837107;29;20077;-87
2023/01/25 18:46:03;;;;;;;10.70;2.67;;;3.30;99.90;;;;;;4840673;29;20077;-88
2023/01/25 18:48:49;;;;;;;11.38;3.25;;;1.40;99.90;;;;;;4838889;29;20030;-88
2023/01/25 18:51:42;;;;;;;10.97;3.17;;;1.30;99.90;;;;;;4836808;29;20026;-88
2023/01/25 18:54:46;;;;;;;9.33;3.03;;;1.40;99.90;;;;;;4831915;29;20041;-88
2023/01/25 18:57:38;;;;;;;10.17;2.80;;;1.30;99.90;;;;;;4839023;29;20041;-88
2023/01/25 19:00:16;;;;;;;12.27;2.23;;;2.30;99.90;;;;;;4829691;29;20041;-87
2023/01/25 19:03:11;;;;;;;9.03;2.97;;;1.20;99.90;;;;;;4838937;29;20032;-88
2023/01/25 19:06:05;;;;;;;10.57;2.80;;;1.50;99.90;;;;;;4836595;29;20110;-88
2023/01/25 19:08:55;;;;;;;8.73;2.83;;;1.40;99.90;;;;;;4853117;29;20076;-88
2023/01/25 19:12:07;;;;;;;8.90;3.00;;;1.80;99.90;;;;;;4837034;29;20037;-86
2023/01/25 19:14:59;;;;;;;10.10;3.77;;;1.60;99.90;;;;;;4851327;29;20046;-86
2023/01/25 19:18:15;;;;;;;7.75;2.80;;;1.50;99.90;;;;;;4844256;29;20045;-88
2023/01/25 19:21:21;;;;;;;9.43;3.13;;;2.70;99.90;;;;;;4809093;29;20037;-88
2023/01/25 19:27:25;;;;;;;10.70;3.30;;;1.00;99.90;;;;;;4835609;29;20071;-88
2023/01/25 19:30:20;;;;;;;11.17;2.73;;;1.10;99.90;;;;;;4839640;29;20046;-87
2023/01/25 19:33:08;;;;;;;10.00;3.00;;;2.50;99.90;;;;;;4838658;29;20030;-87
2023/01/25 19:39:06;;;;;;;10.37;2.83;;;1.90;99.90;;;;;;4831940;29;20513;-87
2023/01/25 19:41:42;;;;;;;7.97;2.73;;;1.00;99.90;;;;;;4838719;29;20046;-87
2023/01/25 19:44:40;;;;;;;8.17;2.97;;;1.30;99.90;;;;;;4836600;29;20030;-87
2023/01/25 19:47:52;;;;;;;10.40;3.10;;;1.30;99.90;;;;;;4780051;29;20047;-87
2023/01/25 19:50:49;;;;;;;7.30;2.80;;;0.50;99.90;;;;;;4793075;29;20028;-87
2023/01/25 19:53:34;;;;;;;7.03;2.87;;;2.40;99.90;;;;;;4845741;29;20026;-86
2023/01/25 19:56:22;;;;;;;6.30;2.70;;;2.80;99.90;;;;;;4848979;29;20032;-86
2023/01/25 19:58:57;;;;;;;11.40;3.50;;;2.30;99.90;;;;;;4839123;29;20113;-87
2023/01/25 20:01:35;;;;;;;12.43;3.13;;;1.10;99.90;;;;;;4836440;29;20044;-88
2023/01/25 20:04:25;;;;;;;11.00;3.27;;;1.70;99.90;;;;;;4835919;29;20167;-86
2023/01/25 20:07:16;;;;;;;9.83;3.17;;;1.50;99.90;;;;;;4829428;29;20117;-87
2023/01/25 20:09:58;;;;;;;8.73;3.53;;;1.70;99.90;;;;;;4847201;29;20037;-87
2023/01/25 20:12:24;;;;;;;;;;;1.80;99.90;;;;;;4850582;29;20021;-87
2023/01/25 20:14:56;;;;;;;10.23;3.07;;;1.80;99.90;;;;;;4842328;29;19945;-88
2023/01/25 20:17:24;;;;;;;9.77;2.85;;;2.90;99.90;;;;;;4846008;29;20042;-87
2023/01/25 20:19:52;;;;;;;11.00;3.63;;;0.90;99.90;;;;;;4853056;29;20037;-87
2023/01/25 20:22:28;;;;;;;14.67;4.20;;;1.20;99.90;;;;;;4837449;29;20170;-88
2023/01/25 20:24:54;;;;;;;8.70;3.23;;;1.30;99.90;;;;;;4834893;29;20631;-87
2023/01/25 20:27:27;;;;;;;11.97;3.43;;;2.80;99.90;;;;;;4838846;29;20088;-86
2023/01/25 20:29:55;;;;;;;11.53;4.43;;;1.70;99.90;;;;;;4836428;29;20022;-87
2023/01/25 20:32:29;;;;;;;10.53;3.63;;;1.50;99.90;;;;;;4835437;29;20030;-87
2023/01/25 20:34:55;;;;;;;10.10;3.60;;;2.00;99.90;;;;;;4840852;29;20401;-87
2023/01/25 20:37:23;;;;;;;24.77;7.70;;;1.50;99.90;;;;;;4833738;29;20129;-86
2023/01/25 20:39:52;;;;;;;15.37;5.07;;;1.10;99.90;;;;;;4834894;29;20041;-87
2023/01/25 20:42:18;;;;;;;11.93;4.13;;;2.10;99.90;;;;;;4838368;29;20095;-86
2023/01/25 20:44:53;;;;;;;11.77;4.70;;;2.00;99.90;;;;;;4845523;29;20246;-86
2023/01/25 20:47:19;;;;;;;11.83;3.70;;;0.80;99.90;;;;;;4849874;29;20042;-86
2023/01/25 20:49:47;;;;;;;9.60;3.47;;;0.90;99.90;;;;;;4858224;29;20014;-85
2023/01/25 20:52:16;;;;;;;11.37;3.40;;;2.80;99.90;;;;;;4851212;29;20041;-85
2023/01/25 20:54:45;;;;;;;9.50;3.10;;;1.40;99.90;;;;;;4850331;29;20098;-86
2023/01/25 20:57:10;;;;;;;16.07;3.77;;;2.80;99.90;;;;;;4857748;29;20026;-85
2023/01/25 20:59:36;;;;;;;11.83;3.17;;;1.30;99.90;;;;;;4855057;29;20054;-85
2023/01/25 21:02:05;;;;;;;17.43;4.47;;;1.70;99.90;;;;;;4848412;29;20077;-86
2023/01/25 21:04:31;;;;;;;12.60;4.33;;;1.30;99.90;;;;;;4841529;29;20075;-86
2023/01/25 21:07:18;;;;;;;9.80;3.53;;;1.20;99.90;;;;;;4839499;29;20057;-86
2023/01/25 21:09:53;;;;;;;9.07;3.10;;;2.10;99.90;;;;;;4845147;29;20034;-86
2023/01/25 21:12:19;;;;;;;9.67;2.87;;;1.50;99.90;;;;;;4832060;29;20061;-87
2023/01/25 21:14:45;;;;;;;13.37;4.03;;;2.20;99.90;;;;;;4836705;29;20064;-86
2023/01/25 21:17:46;;;;;;;11.30;3.63;;;0.80;99.90;;;;;;4834214;29;20063;-86
2023/01/25 21:20:51;;;;;;;;;;;;;;;;;;;;;
2023/01/25 21:26:16;;;;;;;10.73;3.87;;;1.00;99.90;;;;;;4840779;29;20037;-87
2023/01/25 21:28:50;;;;;;;9.63;3.73;;;1.40;99.90;;;;;;4841192;29;20476;-87
2023/01/25 21:31:49;;;;;;;10.33;3.83;;;3.20;99.90;;;;;;4830509;29;20192;-87
2023/01/25 21:34:33;;;;;;;11.90;3.73;;;1.30;99.90;;;;;;4836381;29;20042;-88
2023/01/25 21:37:01;;;;;;;13.50;4.03;;;2.80;99.90;;;;;;4842484;29;20026;-88
2023/01/25 21:40:02;;;;;;;7.33;3.20;;;1.10;99.90;;;;;;4836584;29;20049;-87
2023/01/25 21:42:38;;;;;;;11.37;3.57;;;-0.30;99.90;;;;;;4839379;29;20774;-87
2023/01/25 21:52:00;;;;;;;10.27;3.17;;;0.90;99.90;;;;;;4837220;29;20122;-88
2023/01/25 21:54:41;;;;;;;6.43;2.73;;;2.20;99.90;;;;;;4845438;29;20054;-87
2023/01/25 21:57:16;;;;;;;10.60;2.17;;;1.40;99.90;;;;;;4837521;29;20442;-87
2023/01/25 22:00:14;;;;;;;7.73;2.87;;;2.40;99.90;;;;;;4830174;29;20433;-88
2023/01/25 22:02:58;;;;;;;7.20;2.80;;;1.40;99.90;;;;;;4828478;29;20042;-88
2023/01/25 22:05:51;;;;;;;;;;;;;;;;;;;;;
2023/01/25 22:11:49;;;;;;;11.90;2.77;;;2.30;99.90;;;;;;4834563;29;20059;-87
2023/01/25 22:14:24;;;;;;;7.47;2.80;;;2.90;99.90;;;;;;4848856;29;20111;-88
2023/01/25 22:16:56;;;;;;;8.13;3.33;;;2.10;99.90;;;;;;4827952;29;20097;-88
2023/01/25 22:19:33;;;;;;;8.40;3.03;;;1.20;99.90;;;;;;4815443;29;20046;-87
2023/01/25 22:22:05;;;;;;;10.60;2.77;;;1.60;99.90;;;;;;4820295;29;20022;-87
2023/01/25 22:24:49;;;;;;;8.02;2.88;;;1.20;99.90;;;;;;4817453;29;20791;-88
2023/01/25 22:28:06;;;;;;;8.80;3.00;;;0.70;99.90;;;;;;4819983;29;20046;-88
2023/01/25 22:30:36;;;;;;;11.37;2.90;;;0.80;99.90;;;;;;4833308;29;20460;-86
2023/01/25 22:33:20;;;;;;;9.43;2.93;;;2.10;99.90;;;;;;4819844;29;20488;-87
2023/01/25 22:36:15;;;;;;;9.87;3.37;;;2.50;99.90;;;;;;4822041;29;20058;-87
2023/01/25 22:39:27;;;;;;;10.03;2.47;;;1.90;99.90;;;;;;4826599;29;20042;-88
2023/01/25 22:42:04;;;;;;;8.87;3.17;;;1.00;99.90;;;;;;4834274;29;20148;-88
2023/01/25 22:44:39;;;;;;;7.27;3.37;;;2.30;99.90;;;;;;4835309;29;20037;-87
2023/01/25 22:47:13;;;;;;;12.90;2.90;;;1.10;99.90;;;;;;4838318;29;20045;-88
2023/01/25 22:49:55;;;;;;;8.57;2.63;;;1.00;99.90;;;;;;4837116;29;20034;-87
2023/01/25 22:52:51;;;;;;;7.13;2.70;;;2.10;99.90;;;;;;4838693;29;20076;-87
2023/01/25 22:55:37;;;;;;;9.40;2.97;;;1.00;99.90;;;;;;4836657;29;20030;-87
2023/01/25 22:58:08;;;;;;;7.40;2.63;;;0.80;99.90;;;;;;4843699;29;20035;-87
2023/01/25 23:00:35;;;;;;;11.07;3.40;;;2.50;99.90;;;;;;4840276;29;20043;-87
2023/01/25 23:03:01;;;;;;;7.80;2.73;;;1.10;99.90;;;;;;4839927;29;20037;-87
2023/01/25 23:05:29;;;;;;;10.20;3.10;;;1.20;99.90;;;;;;4841410;29;20042;-87
2023/01/25 23:07:58;;;;;;;11.90;3.03;;;1.90;99.90;;;;;;4842486;29;20034;-88
2023/01/25 23:10:29;;;;;;;12.27;3.83;;;1.00;99.90;;;;;;4841769;29;20034;-87
2023/01/25 23:13:12;;;;;;;12.37;3.27;;;1.20;99.90;;;;;;4844620;29;20032;-87
2023/01/25 23:16:06;;;;;;;10.00;3.60;;;2.60;99.90;;;;;;4853042;29;20042;-87
2023/01/25 23:18:53;;;;;;;11.63;3.93;;;1.90;99.90;;;;;;4837292;29;20109;-86
2023/01/25 23:21:23;;;;;;;11.67;3.60;;;2.10;99.90;;;;;;4844844;29;20034;-87
2023/01/25 23:23:50;;;;;;;13.13;4.47;;;2.20;99.90;;;;;;4843025;29;20023;-86
2023/01/25 23:26:22;;;;;;;10.07;3.80;;;2.10;99.90;;;;;;4837947;29;20042;-86
2023/01/25 23:28:56;;;;;;;10.00;2.87;;;2.40;99.90;;;;;;4840592;29;20037;-86
2023/01/25 23:31:23;;;;;;;9.73;3.37;;;2.20;99.90;;;;;;4833588;29;20502;-87
2023/01/25 23:33:57;;;;;;;11.07;3.70;;;2.00;99.90;;;;;;4851453;29;20022;-87
2023/01/25 23:36:26;;;;;;;10.37;3.30;;;1.80;99.90;;;;;;4843621;29;20021;-87
2023/01/25 23:38:59;;;;;;;14.80;4.50;;;1.90;99.90;;;;;;4845363;29;20030;-87
2023/01/25 23:41:27;;;;;;;11.87;4.23;;;1.30;99.90;;;;;;4842605;29;20045;-86
2023/01/25 23:43:54;;;;;;;17.80;4.37;;;1.00;99.90;;;;;;4846232;29;20011;-88
2023/01/25 23:46:21;;;;;;;13.87;4.43;;;1.10;99.90;;;;;;4844091;29;20097;-88
2023/01/25 23:48:47;;;;;;;16.60;4.13;;;1.10;99.90;;;;;;4844255;29;20031;-87
2023/01/25 23:51:14;;;;;;;20.70;4.87;;;1.00;99.90;;;;;;4841733;29;20030;-87
2023/01/25 23:53:41;;;;;;;13.97;4.30;;;1.00;99.90;;;;;;4845179;29;20027;-87
2023/01/25 23:56:13;;;;;;;11.13;3.83;;;0.90;99.90;;;;;;4845675;29;20041;-87
2023/01/25 23:58:39;;;;;;;16.88;5.28;;;1.00;99.90;;;;;;4845448;29;20022;-87
